createdAt,value
2023-03-31T00:01:34.688Z,80.64
2023-03-31T00:04:05.610Z,81.12
2023-03-31T00:06:42.043Z,80.82
2023-03-31T00:09:13.070Z,79.92
2023-03-31T00:11:41.022Z,80.28
2023-03-31T00:14:09.534Z,81.54
2023-03-31T00:16:39.102Z,81.11
2023-03-31T00:19:10.293Z,82.31
2023-03-31T00:21:38.236Z,80.96
2023-03-31T00:24:07.545Z,82.10
2023-03-31T00:26:36.976Z,82.58
2023-03-31T00:29:07.322Z,83.38
2023-03-31T00:31:36.165Z,82.53
2023-03-31T00:34:03.792Z,82.22
2023-03-31T00:36:32.488Z,81.67
2023-03-31T00:39:08.915Z,80.73
2023-03-31T00:41:39.360Z,80.69
2023-03-31T00:44:22.916Z,81.57
2023-03-31T00:47:04.987Z,81.83
2023-03-31T00:49:37.976Z,81.43
2023-03-31T00:52:35.832Z,82.02
2023-03-31T00:55:09.208Z,82.54
2023-03-31T00:57:41.140Z,83.70
2023-03-31T01:00:15.705Z,83.48
2023-03-31T01:03:07.675Z,82.75
2023-03-31T01:05:50.321Z,83.66
2023-03-31T01:08:20.087Z,83.03
2023-03-31T01:10:51.613Z,82.42
2023-03-31T01:13:21.600Z,82.46
2023-03-31T01:15:49.109Z,83.38
2023-03-31T01:18:21.343Z,83.24
2023-03-31T01:21:07.909Z,82.93
2023-03-31T01:24:12.717Z,83.82
2023-03-31T01:27:14.110Z,83.52
2023-03-31T01:29:41.583Z,83.73
2023-03-31T01:32:39.515Z,85.66
2023-03-31T01:35:27.007Z,85.52
2023-03-31T01:38:13.591Z,85.21
2023-03-31T01:40:41.183Z,85.17
2023-03-31T01:43:31.719Z,85.21
2023-03-31T01:46:28.605Z,84.23
2023-03-31T01:49:19.750Z,86.61
2023-03-31T01:51:47.606Z,86.90
2023-03-31T01:54:52.384Z,85.87
2023-03-31T01:57:20.036Z,86.33
2023-03-31T02:00:03.407Z,86.43
2023-03-31T02:02:38.914Z,86.41
2023-03-31T02:05:14.751Z,87.03
2023-03-31T02:07:51.279Z,86.74
2023-03-31T02:10:20.747Z,86.36
2023-03-31T02:12:51.448Z,87.76
2023-03-31T02:15:27.284Z,86.81
2023-03-31T02:17:59.677Z,87.14
2023-03-31T02:20:32.686Z,87.97
2023-03-31T02:23:01.258Z,88.37
2023-03-31T02:26:10.673Z,87.54
2023-03-31T02:28:39.291Z,85.91
2023-03-31T02:31:44.468Z,89.14
2023-03-31T02:34:13.011Z,88.40
2023-03-31T02:36:42.857Z,86.41
2023-03-31T02:39:21.956Z,87.75
2023-03-31T02:41:49.902Z,87.38
2023-03-31T02:44:17.969Z,88.95
2023-03-31T02:46:47.271Z,87.52
2023-03-31T02:49:17.186Z,87.55
2023-03-31T02:51:53.479Z,88.38
2023-03-31T02:54:30.162Z,89.10
2023-03-31T02:57:25.191Z,89.63
2023-03-31T03:00:24.608Z,89.65
2023-03-31T03:03:36.940Z,89.89
2023-03-31T03:06:20.844Z,90.48
2023-03-31T03:09:13.596Z,90.39
2023-03-31T03:11:53.148Z,91.27
2023-03-31T03:14:54.232Z,90.62
2023-03-31T03:17:33.756Z,90.71
2023-03-31T03:20:08.364Z,91.16
2023-03-31T03:22:40.698Z,89.75
2023-03-31T03:25:11.655Z,89.18
2023-03-31T03:27:41.114Z,89.52
2023-03-31T03:30:11.421Z,89.61
2023-03-31T03:32:39.539Z,89.48
2023-03-31T03:35:07.582Z,89.26
2023-03-31T03:37:35.187Z,88.78
2023-03-31T03:40:05.217Z,88.19
2023-03-31T03:42:33.721Z,87.55
2023-03-31T03:45:05.918Z,87.50
2023-03-31T03:47:34.260Z,88.44
2023-03-31T03:50:02.473Z,87.83
2023-03-31T03:52:30.099Z,87.46
2023-03-31T03:54:58.166Z,86.69
2023-03-31T03:57:26.474Z,85.43
2023-03-31T03:59:54.001Z,85.56
2023-03-31T04:02:24.014Z,85.30
2023-03-31T04:04:53.149Z,85.23
2023-03-31T04:07:20.964Z,84.73
2023-03-31T04:09:50.015Z,84.96
2023-03-31T04:12:17.798Z,85.24
2023-03-31T04:14:45.378Z,85.33
2023-03-31T04:17:18.784Z,84.66
2023-03-31T04:19:50.907Z,83.94
2023-03-31T04:22:20.739Z,83.96
2023-03-31T04:24:52.931Z,84.69
2023-03-31T04:27:21.254Z,85.59
2023-03-31T04:29:57.189Z,84.79
2023-03-31T04:32:25.130Z,84.16
2023-03-31T04:35:02.721Z,83.89
2023-03-31T04:37:35.044Z,83.09
2023-03-31T04:40:09.293Z,82.69
2023-03-31T04:42:36.955Z,82.62
2023-03-31T04:45:04.972Z,81.47
2023-03-31T04:47:34.390Z,81.46
2023-03-31T04:50:02.045Z,82.25
2023-03-31T04:52:29.785Z,82.46
2023-03-31T04:54:57.222Z,81.96
2023-03-31T04:57:24.751Z,82.34
2023-03-31T04:59:55.033Z,81.78
2023-03-31T05:02:25.171Z,79.49
2023-03-31T05:04:53.083Z,79.66
2023-03-31T05:07:20.671Z,79.92
2023-03-31T05:09:48.110Z,80.31
2023-03-31T05:12:15.778Z,78.76
2023-03-31T05:14:43.427Z,79.40
2023-03-31T05:17:11.505Z,78.67
2023-03-31T05:19:40.458Z,77.16
2023-03-31T05:22:07.955Z,76.58
2023-03-31T05:24:36.549Z,76.23
2023-03-31T05:27:04.112Z,75.31
2023-03-31T05:29:32.196Z,75.60
2023-03-31T05:31:59.932Z,74.05
2023-03-31T05:34:27.410Z,74.70
2023-03-31T05:36:54.880Z,74.25
2023-03-31T05:39:22.297Z,73.92
2023-03-31T05:41:49.694Z,72.31
2023-03-31T05:44:17.376Z,72.58
2023-03-31T05:46:45.121Z,71.80
2023-03-31T05:49:12.812Z,70.47
2023-03-31T05:51:40.447Z,70.61
2023-03-31T05:54:08.067Z,70.56
2023-03-31T05:56:37.381Z,69.67
2023-03-31T05:59:05.329Z,68.68
2023-03-31T06:01:33.077Z,67.91
2023-03-31T06:04:01.992Z,67.56
2023-03-31T06:06:29.644Z,67.07
2023-03-31T06:08:58.446Z,66.34
2023-03-31T06:11:26.848Z,63.63
2023-03-31T06:13:54.278Z,63.19
2023-03-31T06:16:21.885Z,62.96
2023-03-31T06:18:51.567Z,63.40
2023-03-31T06:21:19.274Z,62.90
2023-03-31T06:23:47.882Z,62.49
2023-03-31T06:26:17.923Z,61.89
2023-03-31T06:28:47.037Z,59.36
2023-03-31T06:31:17.781Z,59.51
2023-03-31T06:33:46.011Z,60.30
2023-03-31T06:36:16.904Z,58.72
2023-03-31T06:38:45.073Z,57.50
2023-03-31T06:41:14.699Z,55.63
2023-03-31T06:43:42.963Z,55.51
2023-03-31T06:46:11.129Z,54.28
2023-03-31T06:48:38.771Z,54.45
2023-03-31T06:51:07.970Z,54.03
2023-03-31T06:53:36.709Z,55.23
2023-03-31T06:56:06.415Z,56.74
2023-03-31T06:58:34.526Z,56.00
2023-03-31T07:01:06.490Z,55.05
2023-03-31T07:03:36.482Z,56.08
2023-03-31T07:06:04.165Z,54.69
2023-03-31T07:08:31.801Z,53.54
2023-03-31T07:11:00.859Z,53.74
2023-03-31T07:13:29.495Z,52.74
2023-03-31T07:15:57.602Z,52.43
2023-03-31T07:18:26.362Z,52.28
2023-03-31T07:20:54.808Z,51.82
2023-03-31T07:23:22.487Z,49.92
2023-03-31T07:25:53.206Z,49.60
2023-03-31T07:28:20.860Z,49.88
2023-03-31T07:30:48.363Z,51.09
2023-03-31T07:33:17.467Z,50.66
2023-03-31T07:35:44.874Z,51.10
2023-03-31T07:38:16.518Z,51.28
2023-03-31T07:40:47.486Z,51.94
2023-03-31T07:43:20.521Z,53.42
2023-03-31T07:45:48.216Z,51.93
2023-03-31T07:48:16.007Z,51.05
2023-03-31T07:50:43.885Z,52.40
2023-03-31T07:53:11.482Z,53.04
2023-03-31T07:55:38.823Z,53.37
2023-03-31T07:58:06.643Z,51.73
2023-03-31T08:00:34.068Z,51.55
2023-03-31T08:03:04.204Z,51.11
2023-03-31T08:05:32.486Z,50.38
2023-03-31T08:08:00.204Z,51.89
2023-03-31T08:10:31.810Z,51.20
2023-03-31T08:13:01.300Z,52.17
2023-03-31T08:15:29.128Z,53.06
2023-03-31T08:17:56.837Z,51.79
2023-03-31T08:20:24.570Z,51.96
2023-03-31T08:22:52.446Z,53.00
2023-03-31T08:25:21.417Z,53.62
2023-03-31T08:27:51.681Z,52.05
2023-03-31T08:30:20.500Z,52.59
2023-03-31T08:32:48.960Z,52.54
2023-03-31T08:35:16.751Z,52.59
2023-03-31T08:37:44.960Z,51.83
2023-03-31T08:40:20.290Z,52.46
2023-03-31T08:43:01.347Z,52.59
2023-03-31T08:45:32.009Z,51.71
2023-03-31T08:48:08.287Z,51.89
2023-03-31T08:50:45.518Z,52.70
2023-03-31T08:53:35.998Z,52.96
2023-03-31T08:56:08.203Z,52.59
2023-03-31T08:58:41.416Z,50.39
2023-03-31T09:01:24.228Z,51.03
2023-03-31T09:04:02.596Z,50.81
2023-03-31T09:06:43.536Z,51.14
2023-03-31T09:09:26.724Z,51.04
2023-03-31T09:11:56.874Z,50.09
2023-03-31T09:14:30.123Z,49.77
2023-03-31T09:17:25.439Z,50.61
2023-03-31T09:19:59.080Z,51.91
2023-03-31T09:22:53.232Z,50.84
2023-03-31T09:25:46.905Z,51.33
2023-03-31T09:28:25.689Z,53.05
2023-03-31T09:30:55.566Z,53.16
2023-03-31T09:33:33.256Z,52.13
2023-03-31T09:36:01.720Z,52.47
2023-03-31T09:38:34.524Z,53.97
2023-03-31T09:41:03.446Z,54.73
2023-03-31T09:43:35.468Z,55.28
2023-03-31T09:46:14.732Z,51.90
2023-03-31T09:48:53.950Z,52.05
2023-03-31T09:51:29.890Z,51.51
2023-03-31T09:54:24.119Z,51.68
2023-03-31T09:56:55.646Z,50.60
2023-03-31T09:59:34.625Z,50.33
2023-03-31T10:02:10.133Z,49.31
2023-03-31T10:04:46.710Z,48.08
2023-03-31T10:07:21.506Z,47.63
2023-03-31T10:09:49.189Z,47.15
2023-03-31T10:12:24.344Z,47.64
2023-03-31T10:14:54.681Z,48.72
2023-03-31T10:17:24.732Z,49.02
2023-03-31T10:19:59.880Z,48.62
2023-03-31T10:22:31.041Z,49.01
2023-03-31T10:25:17.484Z,47.43
2023-03-31T10:27:48.575Z,47.72
2023-03-31T10:30:23.168Z,48.03
2023-03-31T10:32:54.071Z,48.80
2023-03-31T10:35:29.757Z,47.39
2023-03-31T10:38:04.682Z,46.79
2023-03-31T10:40:36.564Z,46.54
2023-03-31T10:43:18.225Z,47.78
2023-03-31T10:45:51.520Z,46.79
2023-03-31T10:48:31.490Z,48.04
2023-03-31T10:51:04.518Z,48.85
2023-03-31T10:53:41.786Z,48.93
2023-03-31T10:56:37.754Z,49.04
2023-03-31T10:59:37.702Z,46.49
2023-03-31T11:02:27.445Z,46.35
2023-03-31T11:05:14.425Z,44.11
2023-03-31T11:08:27.331Z,44.10
2023-03-31T11:11:22.687Z,42.76
2023-03-31T11:14:29.848Z,41.91
2023-03-31T11:17:27.310Z,41.02
2023-03-31T11:20:38.202Z,40.68
2023-03-31T11:23:26.665Z,41.11
2023-03-31T11:26:06.305Z,40.91
2023-03-31T11:28:54.069Z,39.52
2023-03-31T11:31:31.165Z,40.32
2023-03-31T11:34:20.132Z,38.29
2023-03-31T11:37:11.973Z,38.84
2023-03-31T11:39:50.416Z,39.43
2023-03-31T11:42:50.677Z,39.61
2023-03-31T11:45:44.088Z,41.12
2023-03-31T11:48:33.623Z,41.43
2023-03-31T11:51:05.201Z,42.14
2023-03-31T11:53:36.659Z,41.99
2023-03-31T11:56:07.575Z,41.55
2023-03-31T11:58:45.573Z,41.16
2023-03-31T12:01:24.281Z,40.75
2023-03-31T12:03:56.649Z,41.31
2023-03-31T12:06:30.626Z,41.62
2023-03-31T12:09:16.624Z,41.78
2023-03-31T12:12:18.667Z,39.99
2023-03-31T12:15:00.396Z,41.96
2023-03-31T12:17:29.595Z,40.29
2023-03-31T12:20:10.828Z,38.36
2023-03-31T12:22:43.614Z,36.33
2023-03-31T12:25:19.820Z,37.16
2023-03-31T12:27:51.686Z,38.13
2023-03-31T12:30:42.302Z,38.77
2023-03-31T12:33:27.650Z,38.39
2023-03-31T12:36:49.574Z,39.06
2023-03-31T12:39:42.576Z,38.39
2023-03-31T12:42:15.686Z,37.16
2023-03-31T12:44:51.794Z,38.75
2023-03-31T12:47:41.490Z,39.58
2023-03-31T12:50:31.826Z,38.55
2023-03-31T12:53:12.556Z,38.79
2023-03-31T12:55:50.150Z,38.26
2023-03-31T12:58:32.399Z,38.76
2023-03-31T13:01:20.486Z,38.48
2023-03-31T13:04:26.778Z,39.01
2023-03-31T13:06:57.270Z,38.63
2023-03-31T13:09:44.165Z,38.60
2023-03-31T13:12:19.075Z,39.52
2023-03-31T13:14:49.364Z,39.30
2023-03-31T13:17:25.262Z,39.99
2023-03-31T13:19:55.399Z,40.67
2023-03-31T13:22:37.393Z,41.11
2023-03-31T13:25:39.657Z,41.80
2023-03-31T13:28:22.246Z,42.24
2023-03-31T13:30:52.081Z,44.47
2023-03-31T13:33:22.958Z,44.44
2023-03-31T13:36:07.263Z,44.93
2023-03-31T13:39:04.046Z,44.85
2023-03-31T13:41:46.299Z,46.07
2023-03-31T13:44:33.717Z,46.56
2023-03-31T13:47:25.871Z,46.46
2023-03-31T13:50:17.602Z,46.99
2023-03-31T13:53:07.636Z,46.74
2023-03-31T13:55:55.042Z,47.26
2023-03-31T13:58:34.127Z,47.06
2023-03-31T14:01:30.816Z,48.17
2023-03-31T14:04:32.340Z,47.61
2023-03-31T14:07:08.263Z,47.43
2023-03-31T14:09:49.803Z,47.28
2023-03-31T14:12:34.200Z,47.36
2023-03-31T14:15:07.098Z,47.63
2023-03-31T14:17:41.372Z,49.07
2023-03-31T14:20:20.940Z,48.71
2023-03-31T14:23:03.520Z,49.00
2023-03-31T14:25:37.295Z,48.86
2023-03-31T14:28:18.674Z,49.09
2023-03-31T14:31:05.087Z,49.79
2023-03-31T14:33:49.629Z,49.84
2023-03-31T14:36:31.253Z,50.39
2023-03-31T14:39:04.699Z,50.94
2023-03-31T14:41:33.071Z,51.00
2023-03-31T14:44:06.433Z,50.69
2023-03-31T14:46:38.506Z,50.99
2023-03-31T14:49:19.382Z,51.08
2023-03-31T14:51:48.946Z,51.34
2023-03-31T14:54:18.639Z,51.56
2023-03-31T14:56:51.119Z,50.83
2023-03-31T14:59:27.667Z,50.85
2023-03-31T15:02:03.504Z,50.52
2023-03-31T15:04:45.149Z,49.16
2023-03-31T15:07:15.712Z,49.92
2023-03-31T15:09:49.722Z,50.37
2023-03-31T15:12:22.017Z,50.27
2023-03-31T15:15:06.912Z,50.45
2023-03-31T15:17:41.745Z,50.66
2023-03-31T15:20:29.080Z,47.68
2023-03-31T15:22:57.764Z,45.98
2023-03-31T15:25:29.994Z,43.95
2023-03-31T15:28:03.330Z,42.67
2023-03-31T15:30:37.567Z,42.83
2023-03-31T15:35:57.735Z,41.61
2023-03-31T15:38:28.263Z,41.69
2023-03-31T15:40:58.091Z,41.90
2023-03-31T15:43:46.570Z,42.38
2023-03-31T15:46:25.735Z,42.07
2023-03-31T15:48:54.983Z,41.43
2023-03-31T15:51:31.336Z,42.04
2023-03-31T15:53:58.764Z,41.28
2023-03-31T15:56:38.358Z,40.92
2023-03-31T15:59:34.381Z,41.31
2023-03-31T16:02:13.684Z,40.29
2023-03-31T16:04:41.655Z,40.32
2023-03-31T16:07:27.480Z,39.48
2023-03-31T16:10:09.721Z,39.77
2023-03-31T16:13:03.061Z,39.87
2023-03-31T16:15:43.073Z,39.48
2023-03-31T16:18:17.481Z,40.08
2023-03-31T16:20:54.419Z,40.71
2023-03-31T16:23:26.376Z,41.25
2023-03-31T16:25:55.548Z,41.68
2023-03-31T16:28:26.678Z,41.75
2023-03-31T16:30:54.861Z,42.14
2023-03-31T16:33:26.578Z,41.90
2023-03-31T16:35:56.449Z,42.16
2023-03-31T16:38:26.628Z,41.98
2023-03-31T16:40:56.943Z,41.36
2023-03-31T16:43:27.359Z,41.88
2023-03-31T16:45:57.246Z,42.65
2023-03-31T16:48:27.914Z,42.94
2023-03-31T16:51:01.715Z,43.21
2023-03-31T16:53:33.860Z,43.07
2023-03-31T16:56:02.357Z,44.02
2023-03-31T16:58:30.362Z,44.75
2023-03-31T17:00:58.800Z,44.41
2023-03-31T17:03:28.246Z,44.24
2023-03-31T17:05:59.278Z,44.90
2023-03-31T17:08:29.125Z,45.11
2023-03-31T17:11:14.312Z,43.90
2023-03-31T17:13:44.761Z,43.77
2023-03-31T17:16:22.209Z,43.84
2023-03-31T17:18:58.121Z,43.97
2023-03-31T17:21:26.335Z,44.17
2023-03-31T17:24:03.238Z,44.16
2023-03-31T17:26:31.995Z,44.13
2023-03-31T17:29:00.758Z,44.59
2023-03-31T17:31:28.562Z,44.98
2023-03-31T17:33:57.501Z,45.61
2023-03-31T17:36:30.568Z,46.11
2023-03-31T17:39:00.284Z,46.65
2023-03-31T17:41:29.843Z,47.14
2023-03-31T17:43:58.138Z,47.88
2023-03-31T17:46:27.572Z,48.39
2023-03-31T17:48:58.411Z,49.61
2023-03-31T17:51:27.826Z,50.33
2023-03-31T17:53:57.639Z,51.62
2023-03-31T17:56:26.486Z,53.18
2023-03-31T17:58:56.197Z,53.74
2023-03-31T18:01:24.015Z,54.98
2023-03-31T18:03:51.635Z,55.81
2023-03-31T18:06:19.320Z,55.74
2023-03-31T18:08:48.191Z,57.39
2023-03-31T18:11:15.874Z,57.51
2023-03-31T18:13:54.152Z,57.88
2023-03-31T18:16:22.087Z,60.33
2023-03-31T18:18:49.638Z,60.97
2023-03-31T18:21:18.340Z,62.25
2023-03-31T18:23:48.082Z,63.01
2023-03-31T18:26:15.695Z,63.04
2023-03-31T18:28:43.255Z,64.20
2023-03-31T18:31:12.596Z,65.30
2023-03-31T18:33:41.129Z,66.43
2023-03-31T18:36:15.335Z,66.57
2023-03-31T18:38:45.549Z,66.98
2023-03-31T18:41:13.587Z,66.83
2023-03-31T18:43:44.708Z,66.99
2023-03-31T18:46:13.045Z,68.72
2023-03-31T18:48:42.186Z,68.82
2023-03-31T18:51:12.076Z,69.77
2023-03-31T18:53:42.024Z,69.62
2023-03-31T18:56:10.207Z,70.12
2023-03-31T18:58:38.701Z,70.53
2023-03-31T19:01:06.578Z,70.62
2023-03-31T19:03:39.171Z,70.16
2023-03-31T19:06:12.891Z,71.44
2023-03-31T19:08:41.803Z,71.98
2023-03-31T19:11:09.409Z,71.73
2023-03-31T19:13:40.274Z,70.14
2023-03-31T19:16:27.948Z,71.00
2023-03-31T19:18:56.036Z,71.21
2023-03-31T19:21:24.604Z,72.07
2023-03-31T19:23:52.490Z,72.43
2023-03-31T19:26:22.983Z,73.32
2023-03-31T19:28:50.613Z,73.78
2023-03-31T19:31:18.289Z,74.54
2023-03-31T19:33:47.574Z,75.17
2023-03-31T19:36:15.454Z,75.93
2023-03-31T19:38:44.794Z,75.37
2023-03-31T19:41:12.680Z,75.90
2023-03-31T19:43:40.499Z,75.81
2023-03-31T19:46:08.066Z,76.33
2023-03-31T19:48:37.705Z,76.68
2023-03-31T19:51:08.557Z,77.89
2023-03-31T19:53:38.758Z,77.95
2023-03-31T19:56:09.840Z,77.64
2023-03-31T19:58:39.949Z,78.17
2023-03-31T20:01:15.360Z,77.25
2023-03-31T20:03:43.707Z,77.59
2023-03-31T20:06:13.906Z,78.04
2023-03-31T20:08:43.005Z,78.33
2023-03-31T20:11:14.484Z,78.58
2023-03-31T20:13:43.826Z,77.90
2023-03-31T20:16:14.387Z,77.32
2023-03-31T20:18:47.952Z,77.18
2023-03-31T20:21:19.147Z,76.65
2023-03-31T20:23:50.132Z,77.80
2023-03-31T20:26:20.919Z,77.46
2023-03-31T20:28:48.682Z,77.48
2023-03-31T20:31:25.397Z,77.52
2023-03-31T20:33:54.630Z,76.91
2023-03-31T20:36:24.746Z,77.38
2023-03-31T20:38:54.072Z,77.66
2023-03-31T20:41:26.461Z,76.40
2023-03-31T20:43:55.862Z,75.53
2023-03-31T20:46:23.850Z,76.96
2023-03-31T20:48:55.199Z,75.78
2023-03-31T20:51:25.850Z,74.98
2023-03-31T20:53:54.803Z,75.13
2023-03-31T20:56:29.082Z,74.39
2023-03-31T20:58:59.170Z,75.06
2023-03-31T21:01:30.117Z,75.47
2023-03-31T21:04:01.336Z,75.99
2023-03-31T21:06:36.611Z,75.66
2023-03-31T21:09:05.400Z,75.30
2023-03-31T21:11:34.367Z,76.15
2023-03-31T21:14:02.363Z,76.87
2023-03-31T21:16:30.154Z,76.37
2023-03-31T21:19:00.013Z,75.58
2023-03-31T21:21:29.116Z,75.90
2023-03-31T21:23:56.997Z,75.33
2023-03-31T21:26:25.143Z,75.84
2023-03-31T21:31:46.136Z,76.69
2023-03-31T21:34:14.703Z,77.52
2023-03-31T21:36:42.404Z,78.90
2023-03-31T21:39:10.152Z,78.00
2023-03-31T21:41:40.595Z,79.04
2023-03-31T21:44:09.190Z,78.95
2023-03-31T21:46:36.909Z,79.24
2023-03-31T21:49:04.867Z,78.94
2023-03-31T21:51:32.892Z,78.75
2023-03-31T21:54:00.490Z,79.57
2023-03-31T21:56:31.664Z,79.61
2023-03-31T21:59:01.311Z,79.85
2023-03-31T22:01:29.242Z,79.96
2023-03-31T22:03:57.447Z,81.10
2023-03-31T22:06:24.998Z,80.50
2023-03-31T22:08:52.585Z,80.39
2023-03-31T22:11:23.769Z,80.36
2023-03-31T22:13:53.214Z,80.88
2023-03-31T22:16:23.165Z,81.15
2023-03-31T22:18:53.030Z,80.95
2023-03-31T22:21:23.746Z,81.24
2023-03-31T22:23:56.625Z,81.81
2023-03-31T22:26:26.114Z,81.06
2023-03-31T22:28:59.658Z,81.09
2023-03-31T22:31:28.369Z,80.79
2023-03-31T22:33:56.265Z,80.40
2023-03-31T22:36:24.045Z,79.76
2023-03-31T22:38:52.509Z,80.56
2023-03-31T22:41:20.671Z,80.06
2023-03-31T22:43:48.210Z,80.27
2023-03-31T22:46:16.151Z,80.85
2023-03-31T22:48:44.217Z,79.57
2023-03-31T22:51:12.181Z,78.91
2023-03-31T22:53:39.942Z,79.67
2023-03-31T22:56:11.635Z,79.05
2023-03-31T22:58:39.395Z,79.79
2023-03-31T23:01:07.438Z,79.04
2023-03-31T23:03:35.764Z,79.97
2023-03-31T23:06:06.851Z,79.04
2023-03-31T23:08:37.432Z,78.50
2023-03-31T23:11:07.818Z,76.95
2023-03-31T23:13:39.038Z,78.07
2023-03-31T23:16:10.372Z,77.72
2023-03-31T23:18:44.478Z,77.82
2023-03-31T23:21:16.330Z,77.04
2023-03-31T23:23:44.662Z,78.33
2023-03-31T23:26:14.990Z,79.02
2023-03-31T23:28:42.721Z,79.86
2023-03-31T23:31:10.815Z,80.55
2023-03-31T23:33:39.091Z,79.99
2023-03-31T23:36:07.815Z,79.76
2023-03-31T23:38:35.805Z,78.93
2023-03-31T23:41:03.829Z,79.24
2023-03-31T23:43:31.413Z,78.67
2023-03-31T23:46:02.255Z,78.75
2023-03-31T23:48:30.039Z,78.04
2023-03-31T23:50:57.925Z,78.64
2023-03-31T23:53:27.827Z,77.71
2023-03-31T23:56:01.409Z,76.63
2023-03-31T23:58:30.612Z,76.44
